createdAt,value
2017-10-27T00:00:12.864Z,32.80
2017-10-27T00:02:39.806Z,34.27
2017-10-27T00:05:08.189Z,41.10
2017-10-27T00:07:36.543Z,34.87
2017-10-27T00:10:04.637Z,42.53
2017-10-27T00:12:32.502Z,47.93
2017-10-27T00:15:00.063Z,37.47
2017-10-27T00:17:27.625Z,38.27
2017-10-27T00:19:55.183Z,38.60
2017-10-27T00:22:22.712Z,52.73
2017-10-27T00:24:50.237Z,47.83
2017-10-27T00:27:17.991Z,45.70
2017-10-27T00:29:45.530Z,35.03
2017-10-27T00:32:13.057Z,34.03
2017-10-27T00:34:40.768Z,43.57
2017-10-27T00:37:08.299Z,46.13
2017-10-27T00:39:35.822Z,41.40
2017-10-27T00:42:03.587Z,36.23
2017-10-27T00:44:31.116Z,37.90
2017-10-27T00:46:58.636Z,48.80
2017-10-27T00:49:26.400Z,59.93
2017-10-27T00:51:53.916Z,62.50
2017-10-27T00:54:21.456Z,109.43
2017-10-27T00:56:49.286Z,54.97
2017-10-27T00:59:16.849Z,52.30
2017-10-27T01:01:44.380Z,45.80
2017-10-27T01:04:12.151Z,53.50
2017-10-27T01:06:39.681Z,68.93
2017-10-27T01:09:07.229Z,114.93
2017-10-27T01:11:34.993Z,117.17
2017-10-27T01:14:02.523Z,101.77
2017-10-27T01:16:30.064Z,108.77
2017-10-27T01:18:57.832Z,132.73
2017-10-27T01:21:25.363Z,143.10
2017-10-27T01:23:52.895Z,122.10
2017-10-27T01:26:20.711Z,114.57
2017-10-27T01:28:48.251Z,107.10
2017-10-27T01:31:15.829Z,100.90
2017-10-27T01:33:43.576Z,96.63
2017-10-27T01:36:11.154Z,78.93
2017-10-27T01:38:38.710Z,87.07
2017-10-27T01:41:06.474Z,83.20
2017-10-27T01:43:34.038Z,83.30
2017-10-27T01:46:01.594Z,76.47
2017-10-27T01:48:29.357Z,69.60
2017-10-27T01:50:57.018Z,74.53
2017-10-27T01:53:24.577Z,70.93
2017-10-27T01:55:52.429Z,60.60
2017-10-27T01:58:20.106Z,74.33
2017-10-27T02:00:47.752Z,58.20
2017-10-27T02:03:15.325Z,60.37
2017-10-27T02:05:42.860Z,59.30
2017-10-27T02:08:10.547Z,54.40
2017-10-27T02:10:38.414Z,60.00
2017-10-27T02:13:05.972Z,63.40
2017-10-27T02:15:33.530Z,58.53
2017-10-27T02:18:01.311Z,58.07
2017-10-27T02:20:28.892Z,53.20
2017-10-27T02:22:56.419Z,52.30
2017-10-27T02:25:24.175Z,46.93
2017-10-27T02:27:51.703Z,56.67
2017-10-27T02:30:19.237Z,49.63
2017-10-27T02:32:46.965Z,61.37
2017-10-27T02:35:14.515Z,58.40
2017-10-27T02:37:42.063Z,60.00
2017-10-27T02:40:09.866Z,58.60
2017-10-27T02:42:37.397Z,61.87
2017-10-27T02:45:04.957Z,57.60
2017-10-27T02:47:32.720Z,53.60
2017-10-27T02:50:00.279Z,53.20
2017-10-27T02:52:27.875Z,54.30
2017-10-27T02:54:55.522Z,51.40
2017-10-27T02:57:23.981Z,47.10
2017-10-27T02:59:51.543Z,66.40
2017-10-27T03:02:19.209Z,54.50
2017-10-27T03:04:46.739Z,46.03
2017-10-27T03:07:14.275Z,55.33
2017-10-27T03:09:41.930Z,48.87
2017-10-27T03:12:09.462Z,58.23
2017-10-27T03:14:37.000Z,52.27
2017-10-27T03:17:04.744Z,52.20
2017-10-27T03:19:32.264Z,55.90
2017-10-27T03:21:59.790Z,50.83
2017-10-27T03:24:27.540Z,55.87
2017-10-27T03:26:55.118Z,57.73
2017-10-27T03:29:22.661Z,57.80
2017-10-27T03:31:50.416Z,54.10
2017-10-27T03:34:17.984Z,57.90
2017-10-27T03:36:45.540Z,55.03
2017-10-27T03:39:13.393Z,57.60
2017-10-27T03:41:40.972Z,70.77
2017-10-27T03:44:08.549Z,53.20
2017-10-27T03:46:36.139Z,54.53
2017-10-27T03:49:03.680Z,60.30
2017-10-27T03:51:31.211Z,54.00
2017-10-27T03:53:58.953Z,64.17
2017-10-27T03:56:26.480Z,60.20
2017-10-27T03:58:54.011Z,57.23
2017-10-27T04:01:21.931Z,59.10
2017-10-27T04:03:49.456Z,64.53
2017-10-27T04:06:16.980Z,56.33
2017-10-27T04:08:44.739Z,63.07
2017-10-27T04:11:12.289Z,60.87
2017-10-27T04:13:39.849Z,54.17
2017-10-27T04:16:07.511Z,49.90
2017-10-27T04:18:35.044Z,67.83
2017-10-27T04:21:02.567Z,54.63
2017-10-27T04:23:29.701Z,61.90
2017-10-27T04:25:57.219Z,59.93
2017-10-27T04:28:24.743Z,51.90
2017-10-27T04:30:52.543Z,56.40
2017-10-27T04:33:20.118Z,58.20
2017-10-27T04:35:47.677Z,56.43
2017-10-27T04:38:15.505Z,78.47
2017-10-27T04:40:43.038Z,64.97
2017-10-27T04:43:10.579Z,58.90
2017-10-27T04:45:38.424Z,61.87
2017-10-27T04:48:05.970Z,60.00
2017-10-27T04:50:33.644Z,54.90
2017-10-27T04:53:01.396Z,57.13
2017-10-27T04:55:28.970Z,65.07
2017-10-27T04:57:56.529Z,63.97
2017-10-27T05:00:24.089Z,59.23
2017-10-27T05:02:51.647Z,59.23
2017-10-27T05:05:19.615Z,44.23
2017-10-27T05:07:47.183Z,54.80
2017-10-27T05:10:15.767Z,59.65
2017-10-27T05:12:43.283Z,47.47
2017-10-27T05:15:11.064Z,39.27
2017-10-27T05:17:44.107Z,42.87
2017-10-27T05:20:17.342Z,46.63
2017-10-27T05:22:50.362Z,35.37
2017-10-27T05:25:17.918Z,35.80
2017-10-27T05:27:45.471Z,31.60
2017-10-27T05:30:12.992Z,29.37
2017-10-27T05:32:40.871Z,40.73
2017-10-27T05:35:08.404Z,33.40
2017-10-27T05:37:35.936Z,28.77
2017-10-27T05:40:03.500Z,33.77
2017-10-27T05:42:32.047Z,28.27
2017-10-27T05:44:59.607Z,35.63
2017-10-27T05:47:27.167Z,31.20
2017-10-27T05:49:54.699Z,29.70
2017-10-27T05:52:22.223Z,29.50
2017-10-27T05:54:49.783Z,31.10
2017-10-27T05:57:17.312Z,33.83
2017-10-27T05:59:45.680Z,39.97
2017-10-27T06:02:13.363Z,39.30
2017-10-27T06:04:41.412Z,39.60
2017-10-27T06:07:08.932Z,39.10
2017-10-27T06:09:36.634Z,42.43
2017-10-27T06:12:04.192Z,31.23
2017-10-27T06:14:31.750Z,41.63
2017-10-27T06:16:59.404Z,29.47
2017-10-27T06:19:26.929Z,29.40
2017-10-27T06:21:54.448Z,29.70
2017-10-27T06:24:22.191Z,37.87
2017-10-27T06:26:49.711Z,36.20
2017-10-27T06:29:17.235Z,35.13
2017-10-27T06:31:45.087Z,32.80
2017-10-27T06:34:12.633Z,28.10
2017-10-27T06:36:40.191Z,29.90
2017-10-27T06:39:07.955Z,26.30
2017-10-27T06:41:35.477Z,25.50
2017-10-27T06:44:03.484Z,24.73
2017-10-27T06:46:31.043Z,21.50
2017-10-27T06:48:58.602Z,25.00
2017-10-27T06:51:26.161Z,27.07
2017-10-27T06:53:53.772Z,30.85
2017-10-27T06:56:21.319Z,22.62
2017-10-27T06:58:48.863Z,30.27
2017-10-27T07:01:16.601Z,23.85
2017-10-27T07:03:44.161Z,27.25
2017-10-27T07:06:11.734Z,31.15
2017-10-27T07:08:39.484Z,31.17
2017-10-27T07:11:07.043Z,25.83
2017-10-27T07:13:34.602Z,24.02
2017-10-27T07:16:02.182Z,23.55
2017-10-27T07:18:29.721Z,27.70
2017-10-27T07:20:57.282Z,25.65
2017-10-27T07:23:25.043Z,29.00
2017-10-27T07:25:52.602Z,22.25
2017-10-27T07:28:20.165Z,28.35
2017-10-27T07:30:48.011Z,36.80
2017-10-27T07:33:15.545Z,26.48
2017-10-27T07:35:43.086Z,24.12
2017-10-27T07:38:10.705Z,25.88
2017-10-27T07:40:39.187Z,34.70
2017-10-27T07:43:06.745Z,19.50
2017-10-27T07:45:34.324Z,23.40
2017-10-27T07:48:01.855Z,27.20
2017-10-27T07:50:29.423Z,24.83
2017-10-27T07:52:57.288Z,26.70
2017-10-27T07:55:24.819Z,34.13
2017-10-27T07:57:52.357Z,34.30
2017-10-27T08:00:19.994Z,69.05
2017-10-27T08:02:47.627Z,34.15
2017-10-27T08:05:15.155Z,52.25
2017-10-27T08:07:42.932Z,38.95
2017-10-27T08:10:10.463Z,45.78
2017-10-27T08:12:39.087Z,24.35
2017-10-27T08:15:06.772Z,17.70
2017-10-27T08:17:33.610Z,18.67
2017-10-27T08:20:04.206Z,14.98
2017-10-27T08:22:31.990Z,19.83
2017-10-27T08:24:59.550Z,28.90
2017-10-27T08:27:27.124Z,22.15
2017-10-27T08:29:54.875Z,20.58
2017-10-27T08:32:22.432Z,22.67
2017-10-27T08:34:49.995Z,21.55
2017-10-27T08:37:17.763Z,21.65
2017-10-27T08:39:45.827Z,28.73
2017-10-27T08:42:25.674Z,28.00
2017-10-27T08:44:53.216Z,20.30
2017-10-27T08:47:20.792Z,19.85
2017-10-27T08:49:48.493Z,54.85
2017-10-27T08:52:16.012Z,19.58
2017-10-27T08:54:43.573Z,24.20
2017-10-27T08:57:11.337Z,23.75
2017-10-27T08:59:38.863Z,20.42
2017-10-27T09:02:06.455Z,22.25
2017-10-27T09:04:34.422Z,27.15
2017-10-27T09:07:01.982Z,20.90
2017-10-27T09:09:29.744Z,27.93
2017-10-27T09:11:57.509Z,21.15
2017-10-27T09:14:25.069Z,20.20
2017-10-27T09:16:52.631Z,26.80
2017-10-27T09:19:20.391Z,18.80
2017-10-27T09:21:47.951Z,17.23
2017-10-27T09:24:15.475Z,9.23
2017-10-27T09:26:43.274Z,15.60
2017-10-27T09:29:10.819Z,9.93
2017-10-27T09:31:38.340Z,18.43
2017-10-27T09:34:06.038Z,9.23
2017-10-27T09:36:33.552Z,8.90
2017-10-27T09:39:01.092Z,11.80
2017-10-27T09:41:28.834Z,12.00
2017-10-27T09:43:56.393Z,8.80
2017-10-27T09:46:23.954Z,8.73
2017-10-27T09:48:51.715Z,14.10
2017-10-27T09:51:19.378Z,10.40
2017-10-27T09:53:46.936Z,8.70
2017-10-27T09:56:14.802Z,10.47
2017-10-27T09:58:42.318Z,8.53
2017-10-27T10:01:09.875Z,8.63
2017-10-27T10:03:37.553Z,7.60
2017-10-27T10:06:05.243Z,6.87
2017-10-27T10:08:32.762Z,9.30
2017-10-27T10:11:00.311Z,8.03
2017-10-27T10:13:27.836Z,7.40
2017-10-27T10:15:56.299Z,6.03
2017-10-27T10:18:24.576Z,10.13
2017-10-27T10:20:52.135Z,7.00
2017-10-27T10:23:19.666Z,9.60
2017-10-27T10:25:47.463Z,13.53
2017-10-27T10:28:15.031Z,7.63
2017-10-27T10:30:42.576Z,11.77
2017-10-27T10:33:10.319Z,10.30
2017-10-27T10:35:37.899Z,12.30
2017-10-27T10:38:05.459Z,11.33
2017-10-27T10:40:33.199Z,7.10
2017-10-27T10:43:00.726Z,13.80
2017-10-27T10:45:28.251Z,15.07
2017-10-27T10:47:56.002Z,6.93
2017-10-27T10:50:23.524Z,6.80
2017-10-27T10:52:51.531Z,6.33
2017-10-27T10:55:19.116Z,11.80
2017-10-27T10:57:46.648Z,15.50
2017-10-27T11:00:14.231Z,11.03
2017-10-27T11:02:42.280Z,17.03
2017-10-27T11:05:09.833Z,8.20
2017-10-27T11:07:37.408Z,9.97
2017-10-27T11:10:05.367Z,9.53
2017-10-27T11:12:32.886Z,10.90
2017-10-27T11:15:00.408Z,7.70
2017-10-27T11:17:28.123Z,10.80
2017-10-27T11:19:55.636Z,14.43
2017-10-27T11:22:23.165Z,5.63
2017-10-27T11:24:50.908Z,14.33
2017-10-27T11:27:18.424Z,7.30
2017-10-27T11:29:45.948Z,17.50
2017-10-27T11:32:13.787Z,7.83
2017-10-27T11:34:41.311Z,9.43
2017-10-27T11:37:08.827Z,8.50
2017-10-27T11:39:36.592Z,15.13
2017-10-27T11:42:04.147Z,10.47
2017-10-27T11:44:31.815Z,15.03
2017-10-27T11:46:59.847Z,11.97
2017-10-27T11:49:27.451Z,16.57
2017-10-27T11:51:54.997Z,20.57
2017-10-27T11:54:22.763Z,14.60
2017-10-27T11:56:50.329Z,4.13
2017-10-27T11:59:17.894Z,7.23
2017-10-27T12:01:45.736Z,8.67
2017-10-27T12:04:13.305Z,9.60
2017-10-27T12:06:40.865Z,6.07
2017-10-27T12:09:08.560Z,7.30
2017-10-27T12:11:36.089Z,10.00
2017-10-27T12:14:03.643Z,5.37
2017-10-27T12:16:31.388Z,8.97
2017-10-27T12:18:58.967Z,11.00
2017-10-27T12:21:26.536Z,6.70
2017-10-27T12:23:54.297Z,8.80
2017-10-27T12:26:21.848Z,13.30
2017-10-27T12:28:49.445Z,10.27
2017-10-27T12:31:17.172Z,9.33
2017-10-27T12:33:44.694Z,15.00
2017-10-27T12:36:12.291Z,9.67
2017-10-27T12:38:40.055Z,11.13
2017-10-27T12:41:07.620Z,13.70
2017-10-27T12:43:35.190Z,19.97
2017-10-27T12:46:03.022Z,11.50
2017-10-27T12:48:30.553Z,7.20
2017-10-27T12:50:58.086Z,7.67
2017-10-27T12:53:25.659Z,11.87
2017-10-27T12:55:53.181Z,8.97
2017-10-27T12:58:20.731Z,8.70
2017-10-27T13:00:48.474Z,14.33
2017-10-27T13:03:16.004Z,17.67
2017-10-27T13:05:43.531Z,23.73
2017-10-27T13:08:11.274Z,14.13
2017-10-27T13:10:38.836Z,17.13
2017-10-27T13:13:06.413Z,9.57
2017-10-27T13:15:34.567Z,6.83
2017-10-27T13:18:02.126Z,5.90
2017-10-27T13:20:30.096Z,9.30
2017-10-27T13:22:58.018Z,15.13
2017-10-27T13:25:25.552Z,8.67
2017-10-27T13:27:54.001Z,11.90
2017-10-27T13:30:21.548Z,8.40
2017-10-27T13:32:49.223Z,15.13
2017-10-27T13:35:17.702Z,6.50
2017-10-27T13:37:45.466Z,4.47
2017-10-27T13:40:12.988Z,16.03
2017-10-27T13:42:40.504Z,3.93
2017-10-27T13:45:08.339Z,5.97
2017-10-27T13:47:35.860Z,5.10
2017-10-27T13:50:03.390Z,3.20
2017-10-27T13:52:31.027Z,4.53
2017-10-27T13:54:58.687Z,4.07
2017-10-27T13:57:26.246Z,5.27
2017-10-27T13:59:54.453Z,7.93
2017-10-27T14:02:21.981Z,4.17
2017-10-27T14:04:49.533Z,4.90
2017-10-27T14:07:17.417Z,3.87
2017-10-27T14:09:44.963Z,6.50
2017-10-27T14:12:12.478Z,5.47
2017-10-27T14:14:40.276Z,6.03
2017-10-27T14:17:08.120Z,5.50
2017-10-27T14:19:35.815Z,5.13
2017-10-27T14:22:04.399Z,6.23
2017-10-27T14:24:32.880Z,7.73
2017-10-27T14:27:01.059Z,6.90
2017-10-27T14:29:29.001Z,8.90
2017-10-27T14:31:56.896Z,7.13
2017-10-27T14:34:24.881Z,4.50
2017-10-27T14:36:53.191Z,5.30
2017-10-27T14:39:20.915Z,6.20
2017-10-27T14:41:48.797Z,5.27
2017-10-27T14:44:16.838Z,5.73
2017-10-27T14:46:44.700Z,5.73
2017-10-27T14:49:12.259Z,8.30
2017-10-27T14:51:40.036Z,6.70
2017-10-27T14:54:07.744Z,8.03
2017-10-27T14:56:36.241Z,7.03
2017-10-27T14:59:04.238Z,7.50
2017-10-27T15:01:31.828Z,5.87
2017-10-27T15:03:59.563Z,9.07
2017-10-27T15:06:27.632Z,2.83
2017-10-27T15:08:55.397Z,6.47
2017-10-27T15:11:23.052Z,13.23
2017-10-27T15:13:51.020Z,21.57
2017-10-27T15:16:18.855Z,16.17
2017-10-27T15:18:46.761Z,9.83
2017-10-27T15:21:14.654Z,6.50
2017-10-27T15:23:42.409Z,13.90
2017-10-27T15:26:10.271Z,8.30
2017-10-27T15:28:38.230Z,10.93
2017-10-27T15:31:06.012Z,6.60
2017-10-27T15:33:33.859Z,7.47
2017-10-27T15:36:02.741Z,10.40
2017-10-27T15:38:30.616Z,8.30
2017-10-27T15:40:59.469Z,7.73
2017-10-27T15:43:27.578Z,6.60
2017-10-27T15:45:55.273Z,9.83
2017-10-27T15:48:23.140Z,15.43
2017-10-27T15:50:51.110Z,9.00
2017-10-27T15:53:18.833Z,5.60
2017-10-27T15:55:46.600Z,8.23
2017-10-27T15:58:14.775Z,7.10
2017-10-27T16:00:42.549Z,13.20
2017-10-27T16:03:10.502Z,8.18
2017-10-27T16:05:38.575Z,15.65
2017-10-27T16:08:06.513Z,8.95
2017-10-27T16:10:34.133Z,7.43
2017-10-27T16:13:02.173Z,9.48
2017-10-27T16:15:29.820Z,10.48
2017-10-27T16:17:57.428Z,10.10
2017-10-27T16:20:25.678Z,14.77
2017-10-27T16:22:53.349Z,16.25
2017-10-27T16:25:21.008Z,8.30
2017-10-27T16:27:48.969Z,9.35
2017-10-27T16:30:16.726Z,8.52
2017-10-27T16:32:44.489Z,6.75
2017-10-27T16:35:12.510Z,8.23
2017-10-27T16:37:40.110Z,4.22
2017-10-27T16:40:07.800Z,7.97
2017-10-27T16:42:35.851Z,7.95
2017-10-27T16:45:03.720Z,14.63
2017-10-27T16:47:31.493Z,18.52
2017-10-27T16:49:59.859Z,15.77
2017-10-27T16:52:27.637Z,18.37
2017-10-27T16:54:55.697Z,13.82
2017-10-27T16:57:23.868Z,12.63
2017-10-27T16:59:51.649Z,20.55
2017-10-27T17:02:19.407Z,46.30
2017-10-27T17:04:47.980Z,19.17
2017-10-27T17:07:15.850Z,12.77
2017-10-27T17:09:43.611Z,50.12
2017-10-27T17:12:11.692Z,49.47
2017-10-27T17:14:39.456Z,22.33
2017-10-27T17:17:07.328Z,20.27
2017-10-27T17:19:35.396Z,15.32
2017-10-27T17:22:03.285Z,23.02
2017-10-27T17:24:31.041Z,19.23
2017-10-27T17:26:58.992Z,13.57
2017-10-27T17:29:26.879Z,9.57
2017-10-27T17:31:54.727Z,12.02
2017-10-27T17:34:23.604Z,8.18
2017-10-27T17:36:51.322Z,14.75
2017-10-27T17:39:19.236Z,13.55
2017-10-27T17:41:48.432Z,15.75
2017-10-27T17:44:16.401Z,16.95
2017-10-27T17:46:44.271Z,21.83
2017-10-27T17:49:12.134Z,9.45
2017-10-27T17:51:40.418Z,8.07
2017-10-27T17:54:08.279Z,10.63
2017-10-27T17:56:37.381Z,11.43
2017-10-27T17:59:05.140Z,17.10
2017-10-27T18:01:33.227Z,16.95
2017-10-27T18:04:01.300Z,11.38
2017-10-27T18:06:29.146Z,22.90
2017-10-27T18:08:57.113Z,16.95
2017-10-27T18:11:25.286Z,9.82
2017-10-27T18:13:53.737Z,8.15
2017-10-27T18:16:21.652Z,10.35
2017-10-27T18:18:50.450Z,12.60
2017-10-27T18:21:18.392Z,11.50
2017-10-27T18:23:46.158Z,18.52
2017-10-27T18:26:14.228Z,9.30
2017-10-27T18:28:41.990Z,16.98
2017-10-27T18:31:09.650Z,10.13
2017-10-27T18:33:38.373Z,16.98
2017-10-27T18:36:06.517Z,18.83
2017-10-27T18:38:34.278Z,12.88
2017-10-27T18:41:02.346Z,11.68
2017-10-27T18:43:30.090Z,13.82
2017-10-27T18:45:57.874Z,14.75
2017-10-27T18:48:25.961Z,9.68
2017-10-27T18:50:54.034Z,9.73
2017-10-27T18:53:21.794Z,9.23
2017-10-27T18:55:49.745Z,10.20
2017-10-27T18:58:17.517Z,6.30
2017-10-27T19:00:45.294Z,12.85
2017-10-27T19:03:13.261Z,14.85
2017-10-27T19:05:41.013Z,13.20
2017-10-27T19:08:08.777Z,10.55
2017-10-27T19:10:36.640Z,26.73
2017-10-27T19:13:04.407Z,16.30
2017-10-27T19:15:32.183Z,10.02
2017-10-27T19:18:00.544Z,18.98
2017-10-27T19:20:28.326Z,12.05
2017-10-27T19:22:56.076Z,11.60
2017-10-27T19:25:23.846Z,7.28
2017-10-27T19:27:51.719Z,12.45
2017-10-27T19:30:19.637Z,7.20
2017-10-27T19:32:47.741Z,11.38
2017-10-27T19:35:15.608Z,9.93
2017-10-27T19:37:43.371Z,10.07
2017-10-27T19:40:11.956Z,8.68
2017-10-27T19:42:40.744Z,18.17
2017-10-27T19:45:08.521Z,13.95
2017-10-27T19:47:36.482Z,15.98
2017-10-27T19:50:04.274Z,14.43
2017-10-27T19:52:32.116Z,8.40
2017-10-27T19:55:00.182Z,10.18
2017-10-27T19:57:28.356Z,8.05
2017-10-27T19:59:56.114Z,6.40
2017-10-27T20:02:24.321Z,23.38
2017-10-27T20:04:52.070Z,7.50
2017-10-27T20:07:19.921Z,18.98
2017-10-27T20:09:48.211Z,12.52
2017-10-27T20:12:16.164Z,8.88
2017-10-27T20:14:43.944Z,11.45
2017-10-27T20:17:12.165Z,10.95
2017-10-27T20:19:40.582Z,10.45
2017-10-27T20:22:08.338Z,14.75
2017-10-27T20:24:36.424Z,12.65
2017-10-27T20:27:04.423Z,9.80
2017-10-27T20:29:32.149Z,10.85
2017-10-27T20:32:00.077Z,13.62
2017-10-27T20:34:27.849Z,9.82
2017-10-27T20:36:55.542Z,23.65
2017-10-27T20:39:23.427Z,14.73
2017-10-27T20:41:51.275Z,11.15
2017-10-27T20:44:18.942Z,7.95
2017-10-27T20:46:46.906Z,10.48
2017-10-27T20:49:15.506Z,13.98
2017-10-27T20:51:43.973Z,11.77
2017-10-27T20:54:11.938Z,14.05
2017-10-27T20:56:39.724Z,7.53
2017-10-27T20:59:07.570Z,14.98
2017-10-27T21:01:35.639Z,12.90
2017-10-27T21:04:03.312Z,9.57
2017-10-27T21:06:31.079Z,12.30
2017-10-27T21:08:59.529Z,8.35
2017-10-27T21:11:27.721Z,7.28
2017-10-27T21:13:55.587Z,11.23
2017-10-27T21:16:23.512Z,12.52
2017-10-27T21:18:51.730Z,14.60
2017-10-27T21:21:19.807Z,10.60
2017-10-27T21:23:47.881Z,11.15
2017-10-27T21:26:15.943Z,8.90
2017-10-27T21:28:43.818Z,9.75
2017-10-27T21:31:11.667Z,19.87
2017-10-27T21:33:39.552Z,7.32
2017-10-27T21:36:07.305Z,19.25
2017-10-27T21:38:35.477Z,14.05
2017-10-27T21:41:03.241Z,12.25
2017-10-27T21:43:31.118Z,16.45
2017-10-27T21:45:59.083Z,11.98
2017-10-27T21:48:26.844Z,9.18
2017-10-27T21:50:54.402Z,11.12
2017-10-27T21:53:22.472Z,13.65
2017-10-27T21:55:50.133Z,15.07
2017-10-27T21:58:17.884Z,15.45
2017-10-27T22:00:45.765Z,20.30
2017-10-27T22:03:13.427Z,23.00
2017-10-27T22:05:40.992Z,14.07
2017-10-27T22:08:08.852Z,18.27
2017-10-27T22:10:36.716Z,16.55
2017-10-27T22:13:04.480Z,18.05
2017-10-27T22:15:32.243Z,9.85
2017-10-27T22:17:59.876Z,15.82
2017-10-27T22:20:27.791Z,16.48
2017-10-27T22:22:55.714Z,17.65
2017-10-27T22:25:23.457Z,19.70
2017-10-27T22:27:51.167Z,17.35
2017-10-27T22:30:18.930Z,40.05
2017-10-27T22:32:46.541Z,14.65
2017-10-27T22:35:14.149Z,11.05
2017-10-27T22:37:42.028Z,13.85
2017-10-27T22:40:09.678Z,14.43
2017-10-27T22:42:37.320Z,14.90
2017-10-27T22:45:05.309Z,10.10
2017-10-27T22:47:36.296Z,15.60
2017-10-27T22:50:04.011Z,15.85
2017-10-27T22:52:32.184Z,11.55
2017-10-27T22:54:59.744Z,23.00
2017-10-27T22:57:27.358Z,14.38
2017-10-27T22:59:55.169Z,25.02
2017-10-27T23:02:22.727Z,17.73
2017-10-27T23:04:50.385Z,13.75
2017-10-27T23:07:18.268Z,13.60
2017-10-27T23:09:45.791Z,12.02
2017-10-27T23:12:13.312Z,16.95
2017-10-27T23:14:41.178Z,20.60
2017-10-27T23:17:08.705Z,12.35
2017-10-27T23:19:36.245Z,13.05
2017-10-27T23:22:04.518Z,14.18
2017-10-27T23:24:32.041Z,15.23
2017-10-27T23:26:59.571Z,15.05
2017-10-27T23:29:27.310Z,10.00
2017-10-27T23:31:54.884Z,20.40
2017-10-27T23:34:22.425Z,8.55
2017-10-27T23:36:50.084Z,7.65
2017-10-27T23:39:17.654Z,8.65
2017-10-27T23:41:45.216Z,10.90
2017-10-27T23:44:13.262Z,10.13
2017-10-27T23:46:40.789Z,11.80
2017-10-27T23:49:08.313Z,13.45
2017-10-27T23:51:36.143Z,12.18
2017-10-27T23:54:03.664Z,11.35
2017-10-27T23:56:31.187Z,10.68
2017-10-27T23:58:58.948Z,10.68
